Grizzly Air Cargo 5380


PAKN
King Salmon Airport
King Salmon, Alaska, US
PANI
Aniak Airport
Aniak, Alaska, US

Activity Log

Date Flight Route Aircraft Duration
No Flights Yet

Route Details

Aircraft Information
Primary: Saab 340AF
Backup: Not Available
Route Data
Distance: 220nm
Sched. Duration: 1h 00m
Avg. Duration: 0h 00m (-100m)
Times Flown: 0
Recm'd Route: AKN Q51 SLIIM ANI
Planned Altitude: 20,000ft
Origin Wx: PAKN 061154Z 27013KT 10SM FEW040 M04/M11 A3008 RMK AO2 SLP189 60000 T10441106 11022 21044 51008
Dest. Wx: PANI 061156Z AUTO 26012G21KT 9SM -SN OVC039 M09/M13 A2996 RMK AO2 SNE05B42 SLP150 P0000 60000 T10891128 11067 21094 53017 FZRANO
Notes:

Financial History
Total Freight: 0lbs
Average Load: 0lbs/flt
Fuel Used: 0lbs
Avg. Fuel Used: 0lbs/flt
Fuel Expense: $0
Avg. Fuel Expense: $0
Avg. Fuel Cost: $0/lbs
Total Gross Income: $0
Pilot Pay: $0
Total Expenses: $0
Total Revenue: $0
Average Revenue: $0